sensor_id;sensor_type;location;lat;lon;timestamp;temperature;humidity
43043;DHT22;28667;50.758;6.096;2022-08-06T00:00:00;13.20;99.90
43043;DHT22;28667;50.758;6.096;2022-08-06T00:02:28;13.20;99.90
43043;DHT22;28667;50.758;6.096;2022-08-06T00:04:59;13.10;99.90
43043;DHT22;28667;50.758;6.096;2022-08-06T00:07:26;13.00;99.90
43043;DHT22;28667;50.758;6.096;2022-08-06T00:09:53;13.00;99.90
43043;DHT22;28667;50.758;6.096;2022-08-06T00:12:19;12.90;99.90
43043;DHT22;28667;50.758;6.096;2022-08-06T00:14:45;12.90;99.90
43043;DHT22;28667;50.758;6.096;2022-08-06T00:17:11;12.80;99.90
43043;DHT22;28667;50.758;6.096;2022-08-06T00:19:37;12.80;99.90
43043;DHT22;28667;50.758;6.096;2022-08-06T00:22:03;12.70;99.90
43043;DHT22;28667;50.758;6.096;2022-08-06T00:24:30;12.60;99.90
43043;DHT22;28667;50.758;6.096;2022-08-06T00:26:56;12.60;99.90
43043;DHT22;28667;50.758;6.096;2022-08-06T00:29:22;12.50;99.90
43043;DHT22;28667;50.758;6.096;2022-08-06T00:31:48;12.50;99.90
43043;DHT22;28667;50.758;6.096;2022-08-06T00:34:14;12.50;99.90
43043;DHT22;28667;50.758;6.096;2022-08-06T00:36:40;12.40;99.90
43043;DHT22;28667;50.758;6.096;2022-08-06T00:39:07;12.40;99.90
43043;DHT22;28667;50.758;6.096;2022-08-06T00:41:34;12.30;99.90
43043;DHT22;28667;50.758;6.096;2022-08-06T00:44:00;12.20;99.90
43043;DHT22;28667;50.758;6.096;2022-08-06T00:46:27;12.20;99.90
43043;DHT22;28667;50.758;6.096;2022-08-06T00:48:53;12.20;99.90
43043;DHT22;28667;50.758;6.096;2022-08-06T00:51:20;12.10;99.90
43043;DHT22;28667;50.758;6.096;2022-08-06T00:53:47;12.10;99.90
43043;DHT22;28667;50.758;6.096;2022-08-06T00:56:13;12.10;99.90
43043;DHT22;28667;50.758;6.096;2022-08-06T00:58:39;12.00;99.90
43043;DHT22;28667;50.758;6.096;2022-08-06T01:01:05;12.00;99.90
43043;DHT22;28667;50.758;6.096;2022-08-06T01:03:31;11.90;99.90
43043;DHT22;28667;50.758;6.096;2022-08-06T01:05:57;11.90;99.90
43043;DHT22;28667;50.758;6.096;2022-08-06T01:08:23;11.90;99.90
43043;DHT22;28667;50.758;6.096;2022-08-06T01:10:49;11.80;99.90
43043;DHT22;28667;50.758;6.096;2022-08-06T01:13:15;11.70;99.90
43043;DHT22;28667;50.758;6.096;2022-08-06T01:15:50;11.80;99.90
43043;DHT22;28667;50.758;6.096;2022-08-06T01:18:25;11.70;99.90
43043;DHT22;28667;50.758;6.096;2022-08-06T01:29:39;11.50;99.90
43043;DHT22;28667;50.758;6.096;2022-08-06T01:32:09;11.50;99.90
43043;DHT22;28667;50.758;6.096;2022-08-06T01:34:44;11.40;99.90
43043;DHT22;28667;50.758;6.096;2022-08-06T01:37:22;11.40;99.90
43043;DHT22;28667;50.758;6.096;2022-08-06T01:39:54;11.30;99.90
43043;DHT22;28667;50.758;6.096;2022-08-06T01:42:21;11.30;99.90
43043;DHT22;28667;50.758;6.096;2022-08-06T01:44:49;11.30;99.90
43043;DHT22;28667;50.758;6.096;2022-08-06T01:47:18;11.30;99.90
43043;DHT22;28667;50.758;6.096;2022-08-06T01:49:48;11.30;99.90
43043;DHT22;28667;50.758;6.096;2022-08-06T01:52:15;11.20;99.90
43043;DHT22;28667;50.758;6.096;2022-08-06T01:54:45;11.20;99.90
43043;DHT22;28667;50.758;6.096;2022-08-06T01:57:15;11.20;99.90
43043;DHT22;28667;50.758;6.096;2022-08-06T01:59:46;11.10;99.90
43043;DHT22;28667;50.758;6.096;2022-08-06T02:02:17;11.10;99.90
43043;DHT22;28667;50.758;6.096;2022-08-06T02:04:45;11.10;99.90
43043;DHT22;28667;50.758;6.096;2022-08-06T02:07:14;11.10;99.90
43043;DHT22;28667;50.758;6.096;2022-08-06T02:09:44;11.10;99.90
43043;DHT22;28667;50.758;6.096;2022-08-06T02:12:18;11.00;99.90
43043;DHT22;28667;50.758;6.096;2022-08-06T02:15:01;11.00;99.90
43043;DHT22;28667;50.758;6.096;2022-08-06T02:17:33;11.00;99.90
43043;DHT22;28667;50.758;6.096;2022-08-06T02:20:00;10.90;99.90
43043;DHT22;28667;50.758;6.096;2022-08-06T02:22:29;10.90;99.90
43043;DHT22;28667;50.758;6.096;2022-08-06T02:25:06;10.90;99.90
43043;DHT22;28667;50.758;6.096;2022-08-06T02:27:36;10.80;99.90
43043;DHT22;28667;50.758;6.096;2022-08-06T02:30:03;10.80;99.90
43043;DHT22;28667;50.758;6.096;2022-08-06T02:32:29;10.80;99.90
43043;DHT22;28667;50.758;6.096;2022-08-06T02:34:56;10.70;99.90
43043;DHT22;28667;50.758;6.096;2022-08-06T02:37:29;10.70;99.90
43043;DHT22;28667;50.758;6.096;2022-08-06T02:40:01;10.70;99.90
43043;DHT22;28667;50.758;6.096;2022-08-06T02:42:33;10.70;99.90
43043;DHT22;28667;50.758;6.096;2022-08-06T02:45:11;10.60;99.90
43043;DHT22;28667;50.758;6.096;2022-08-06T02:50:41;10.60;99.90
43043;DHT22;28667;50.758;6.096;2022-08-06T02:53:11;10.50;99.90
43043;DHT22;28667;50.758;6.096;2022-08-06T02:55:43;10.50;99.90
43043;DHT22;28667;50.758;6.096;2022-08-06T02:58:16;10.50;99.90
43043;DHT22;28667;50.758;6.096;2022-08-06T03:00:45;10.50;99.90
43043;DHT22;28667;50.758;6.096;2022-08-06T03:03:13;10.40;99.90
43043;DHT22;28667;50.758;6.096;2022-08-06T03:05:42;10.40;99.90
43043;DHT22;28667;50.758;6.096;2022-08-06T03:08:13;10.40;99.90
43043;DHT22;28667;50.758;6.096;2022-08-06T03:10:40;10.40;99.90
43043;DHT22;28667;50.758;6.096;2022-08-06T03:13:07;10.40;99.90
43043;DHT22;28667;50.758;6.096;2022-08-06T03:15:35;10.40;99.90
43043;DHT22;28667;50.758;6.096;2022-08-06T03:18:03;10.40;99.90
43043;DHT22;28667;50.758;6.096;2022-08-06T03:20:32;10.30;99.90
43043;DHT22;28667;50.758;6.096;2022-08-06T03:23:02;10.30;99.90
43043;DHT22;28667;50.758;6.096;2022-08-06T03:25:29;10.30;99.90
43043;DHT22;28667;50.758;6.096;2022-08-06T03:27:58;10.30;99.90
43043;DHT22;28667;50.758;6.096;2022-08-06T03:30:25;10.20;99.90
43043;DHT22;28667;50.758;6.096;2022-08-06T03:32:52;10.20;99.90
43043;DHT22;28667;50.758;6.096;2022-08-06T03:35:19;10.20;99.90
43043;DHT22;28667;50.758;6.096;2022-08-06T03:37:47;10.20;99.90
43043;DHT22;28667;50.758;6.096;2022-08-06T03:40:14;10.10;99.90
43043;DHT22;28667;50.758;6.096;2022-08-06T03:42:43;10.10;99.90
43043;DHT22;28667;50.758;6.096;2022-08-06T03:45:09;10.10;99.90
43043;DHT22;28667;50.758;6.096;2022-08-06T03:47:48;10.10;99.90
43043;DHT22;28667;50.758;6.096;2022-08-06T03:50:38;10.00;99.90
43043;DHT22;28667;50.758;6.096;2022-08-06T03:53:13;10.00;99.90
43043;DHT22;28667;50.758;6.096;2022-08-06T03:55:43;10.00;99.90
43043;DHT22;28667;50.758;6.096;2022-08-06T03:58:11;9.90;99.90
43043;DHT22;28667;50.758;6.096;2022-08-06T04:00:50;9.90;99.90
43043;DHT22;28667;50.758;6.096;2022-08-06T04:03:17;9.90;99.90
43043;DHT22;28667;50.758;6.096;2022-08-06T04:05:45;9.90;99.90
43043;DHT22;28667;50.758;6.096;2022-08-06T04:08:13;9.90;99.90
43043;DHT22;28667;50.758;6.096;2022-08-06T04:10:47;9.90;99.90
43043;DHT22;28667;50.758;6.096;2022-08-06T04:13:19;9.90;99.90
43043;DHT22;28667;50.758;6.096;2022-08-06T04:15:46;9.90;99.90
43043;DHT22;28667;50.758;6.096;2022-08-06T04:18:18;9.90;99.90
43043;DHT22;28667;50.758;6.096;2022-08-06T04:20:47;9.90;99.90
43043;DHT22;28667;50.758;6.096;2022-08-06T04:23:14;9.80;99.90
43043;DHT22;28667;50.758;6.096;2022-08-06T04:25:44;9.80;99.90
43043;DHT22;28667;50.758;6.096;2022-08-06T04:28:12;9.80;99.90
43043;DHT22;28667;50.758;6.096;2022-08-06T04:30:40;9.90;99.90
43043;DHT22;28667;50.758;6.096;2022-08-06T04:33:11;9.90;99.90
43043;DHT22;28667;50.758;6.096;2022-08-06T04:35:39;9.90;99.90
43043;DHT22;28667;50.758;6.096;2022-08-06T04:38:07;9.90;99.90
43043;DHT22;28667;50.758;6.096;2022-08-06T04:40:33;9.90;99.90
43043;DHT22;28667;50.758;6.096;2022-08-06T04:42:59;9.90;99.90
43043;DHT22;28667;50.758;6.096;2022-08-06T04:45:26;9.90;99.90
43043;DHT22;28667;50.758;6.096;2022-08-06T04:47:53;10.00;99.90
43043;DHT22;28667;50.758;6.096;2022-08-06T04:50:20;10.00;99.90
43043;DHT22;28667;50.758;6.096;2022-08-06T04:52:46;10.00;99.90
43043;DHT22;28667;50.758;6.096;2022-08-06T04:55:12;10.00;99.90
43043;DHT22;28667;50.758;6.096;2022-08-06T04:57:38;10.00;99.90
43043;DHT22;28667;50.758;6.096;2022-08-06T05:00:05;10.00;99.90
43043;DHT22;28667;50.758;6.096;2022-08-06T05:02:31;10.10;99.90
43043;DHT22;28667;50.758;6.096;2022-08-06T05:04:57;10.10;99.90
43043;DHT22;28667;50.758;6.096;2022-08-06T05:07:28;10.10;99.90
43043;DHT22;28667;50.758;6.096;2022-08-06T05:09:56;10.20;99.90
43043;DHT22;28667;50.758;6.096;2022-08-06T05:15:02;10.20;99.90
43043;DHT22;28667;50.758;6.096;2022-08-06T05:17:35;10.30;99.90
43043;DHT22;28667;50.758;6.096;2022-08-06T05:20:14;10.30;99.90
43043;DHT22;28667;50.758;6.096;2022-08-06T05:22:41;10.40;99.90
43043;DHT22;28667;50.758;6.096;2022-08-06T05:25:09;10.40;99.90
43043;DHT22;28667;50.758;6.096;2022-08-06T05:27:35;10.50;99.90
43043;DHT22;28667;50.758;6.096;2022-08-06T05:30:03;10.50;99.90
43043;DHT22;28667;50.758;6.096;2022-08-06T05:32:30;10.60;99.90
43043;DHT22;28667;50.758;6.096;2022-08-06T05:34:56;10.60;99.90
43043;DHT22;28667;50.758;6.096;2022-08-06T05:37:22;10.70;99.90
43043;DHT22;28667;50.758;6.096;2022-08-06T05:39:48;10.80;99.90
43043;DHT22;28667;50.758;6.096;2022-08-06T05:42:14;10.90;99.90
43043;DHT22;28667;50.758;6.096;2022-08-06T05:44:40;10.90;99.90
43043;DHT22;28667;50.758;6.096;2022-08-06T05:47:15;11.00;99.90
43043;DHT22;28667;50.758;6.096;2022-08-06T05:49:48;11.00;99.90
43043;DHT22;28667;50.758;6.096;2022-08-06T05:52:28;11.10;99.90
43043;DHT22;28667;50.758;6.096;2022-08-06T05:55:13;11.10;99.90
43043;DHT22;28667;50.758;6.096;2022-08-06T05:57:46;11.20;99.90
43043;DHT22;28667;50.758;6.096;2022-08-06T06:00:16;11.30;99.90
43043;DHT22;28667;50.758;6.096;2022-08-06T06:02:46;11.40;99.90
43043;DHT22;28667;50.758;6.096;2022-08-06T06:05:13;11.50;99.90
43043;DHT22;28667;50.758;6.096;2022-08-06T06:07:39;11.60;99.90
43043;DHT22;28667;50.758;6.096;2022-08-06T06:10:07;11.60;99.90
43043;DHT22;28667;50.758;6.096;2022-08-06T06:12:34;11.70;99.90
43043;DHT22;28667;50.758;6.096;2022-08-06T06:15:02;11.70;99.90
43043;DHT22;28667;50.758;6.096;2022-08-06T06:23:23;12.00;99.90
43043;DHT22;28667;50.758;6.096;2022-08-06T06:37:05;12.60;99.90
43043;DHT22;28667;50.758;6.096;2022-08-06T06:42:15;12.90;99.90
43043;DHT22;28667;50.758;6.096;2022-08-06T06:44:55;13.10;99.90
43043;DHT22;28667;50.758;6.096;2022-08-06T06:47:49;13.20;99.90
43043;DHT22;28667;50.758;6.096;2022-08-06T06:50:24;13.30;99.90
43043;DHT22;28667;50.758;6.096;2022-08-06T06:52:52;13.40;99.90
43043;DHT22;28667;50.758;6.096;2022-08-06T06:55:44;13.60;99.90
43043;DHT22;28667;50.758;6.096;2022-08-06T06:58:16;13.70;99.90
43043;DHT22;28667;50.758;6.096;2022-08-06T07:00:45;13.80;99.90
43043;DHT22;28667;50.758;6.096;2022-08-06T07:03:13;14.00;99.90
43043;DHT22;28667;50.758;6.096;2022-08-06T07:05:42;14.10;99.90
43043;DHT22;28667;50.758;6.096;2022-08-06T07:08:11;14.20;99.90
43043;DHT22;28667;50.758;6.096;2022-08-06T07:10:39;14.30;99.90
43043;DHT22;28667;50.758;6.096;2022-08-06T07:13:07;14.40;99.90
43043;DHT22;28667;50.758;6.096;2022-08-06T07:15:35;14.50;99.90
43043;DHT22;28667;50.758;6.096;2022-08-06T07:18:03;14.60;99.90
43043;DHT22;28667;50.758;6.096;2022-08-06T07:20:31;14.60;99.90
43043;DHT22;28667;50.758;6.096;2022-08-06T07:23:03;14.70;99.90
43043;DHT22;28667;50.758;6.096;2022-08-06T07:25:30;14.70;99.90
43043;DHT22;28667;50.758;6.096;2022-08-06T07:27:58;14.80;99.90
43043;DHT22;28667;50.758;6.096;2022-08-06T07:30:26;14.90;99.90
43043;DHT22;28667;50.758;6.096;2022-08-06T07:32:52;15.00;99.90
43043;DHT22;28667;50.758;6.096;2022-08-06T07:35:19;15.10;99.90
43043;DHT22;28667;50.758;6.096;2022-08-06T07:38:01;15.10;99.90
43043;DHT22;28667;50.758;6.096;2022-08-06T07:40:37;15.20;99.90
43043;DHT22;28667;50.758;6.096;2022-08-06T07:43:18;15.20;99.90
43043;DHT22;28667;50.758;6.096;2022-08-06T07:45:46;15.30;99.90
43043;DHT22;28667;50.758;6.096;2022-08-06T07:48:15;15.30;99.90
43043;DHT22;28667;50.758;6.096;2022-08-06T07:50:44;15.40;99.90
43043;DHT22;28667;50.758;6.096;2022-08-06T07:53:11;15.50;99.90
43043;DHT22;28667;50.758;6.096;2022-08-06T07:55:38;15.60;99.90
43043;DHT22;28667;50.758;6.096;2022-08-06T07:58:05;15.70;99.90
43043;DHT22;28667;50.758;6.096;2022-08-06T08:00:32;15.80;99.90
43043;DHT22;28667;50.758;6.096;2022-08-06T08:03:00;15.80;99.90
43043;DHT22;28667;50.758;6.096;2022-08-06T08:05:46;16.00;99.90
43043;DHT22;28667;50.758;6.096;2022-08-06T08:08:32;16.10;99.90
43043;DHT22;28667;50.758;6.096;2022-08-06T08:10:58;16.10;99.90
43043;DHT22;28667;50.758;6.096;2022-08-06T08:13:29;16.20;99.90
43043;DHT22;28667;50.758;6.096;2022-08-06T08:15:57;16.20;99.90
43043;DHT22;28667;50.758;6.096;2022-08-06T08:18:29;16.30;99.70
43043;DHT22;28667;50.758;6.096;2022-08-06T08:20:58;16.40;99.80
43043;DHT22;28667;50.758;6.096;2022-08-06T08:23:25;16.40;99.80
43043;DHT22;28667;50.758;6.096;2022-08-06T08:25:52;16.50;99.90
43043;DHT22;28667;50.758;6.096;2022-08-06T08:28:18;16.60;99.90
43043;DHT22;28667;50.758;6.096;2022-08-06T08:30:45;16.70;99.20
43043;DHT22;28667;50.758;6.096;2022-08-06T08:33:11;16.80;98.50
43043;DHT22;28667;50.758;6.096;2022-08-06T08:35:37;16.80;98.70
43043;DHT22;28667;50.758;6.096;2022-08-06T08:38:03;16.90;98.90
43043;DHT22;28667;50.758;6.096;2022-08-06T08:40:31;16.90;98.40
43043;DHT22;28667;50.758;6.096;2022-08-06T08:43:01;16.90;97.80
43043;DHT22;28667;50.758;6.096;2022-08-06T08:45:31;16.90;97.70
43043;DHT22;28667;50.758;6.096;2022-08-06T08:47:58;16.90;97.70
43043;DHT22;28667;50.758;6.096;2022-08-06T08:50:30;16.90;98.20
43043;DHT22;28667;50.758;6.096;2022-08-06T08:53:08;16.90;98.30
43043;DHT22;28667;50.758;6.096;2022-08-06T08:55:35;16.80;98.20
43043;DHT22;28667;50.758;6.096;2022-08-06T08:58:02;16.70;98.00
43043;DHT22;28667;50.758;6.096;2022-08-06T09:00:28;16.70;98.10
43043;DHT22;28667;50.758;6.096;2022-08-06T09:02:54;16.60;97.90
43043;DHT22;28667;50.758;6.096;2022-08-06T09:05:21;16.60;98.10
43043;DHT22;28667;50.758;6.096;2022-08-06T09:07:51;16.70;98.20
43043;DHT22;28667;50.758;6.096;2022-08-06T09:10:17;16.70;98.00
43043;DHT22;28667;50.758;6.096;2022-08-06T09:12:46;16.80;97.80
43043;DHT22;28667;50.758;6.096;2022-08-06T09:15:17;16.90;97.40
43043;DHT22;28667;50.758;6.096;2022-08-06T09:17:49;17.10;96.20
43043;DHT22;28667;50.758;6.096;2022-08-06T09:20:18;17.40;96.20
43043;DHT22;28667;50.758;6.096;2022-08-06T09:22:48;17.70;95.50
43043;DHT22;28667;50.758;6.096;2022-08-06T09:31:06;18.00;94.10
43043;DHT22;28667;50.758;6.096;2022-08-06T09:33:36;18.20;93.80
43043;DHT22;28667;50.758;6.096;2022-08-06T09:36:10;18.30;93.70
43043;DHT22;28667;50.758;6.096;2022-08-06T09:38:52;18.50;93.30
43043;DHT22;28667;50.758;6.096;2022-08-06T09:41:20;18.40;93.90
43043;DHT22;28667;50.758;6.096;2022-08-06T09:43:49;18.30;93.50
43043;DHT22;28667;50.758;6.096;2022-08-06T09:46:16;18.30;93.50
43043;DHT22;28667;50.758;6.096;2022-08-06T09:48:57;18.30;93.60
43043;DHT22;28667;50.758;6.096;2022-08-06T09:51:24;18.30;93.30
43043;DHT22;28667;50.758;6.096;2022-08-06T09:53:53;18.20;93.80
43043;DHT22;28667;50.758;6.096;2022-08-06T09:56:19;18.20;93.60
43043;DHT22;28667;50.758;6.096;2022-08-06T09:58:45;18.20;93.00
43043;DHT22;28667;50.758;6.096;2022-08-06T10:01:21;18.30;92.50
43043;DHT22;28667;50.758;6.096;2022-08-06T10:03:53;18.30;92.40
43043;DHT22;28667;50.758;6.096;2022-08-06T10:06:19;18.40;92.60
43043;DHT22;28667;50.758;6.096;2022-08-06T10:09:08;18.30;92.30
43043;DHT22;28667;50.758;6.096;2022-08-06T10:11:37;18.20;92.50
43043;DHT22;28667;50.758;6.096;2022-08-06T10:14:04;18.10;92.70
43043;DHT22;28667;50.758;6.096;2022-08-06T10:16:31;18.20;92.70
43043;DHT22;28667;50.758;6.096;2022-08-06T10:18:59;18.20;91.80
43043;DHT22;28667;50.758;6.096;2022-08-06T10:21:31;18.30;91.60
43043;DHT22;28667;50.758;6.096;2022-08-06T10:24:01;18.40;91.70
43043;DHT22;28667;50.758;6.096;2022-08-06T10:26:29;18.50;91.50
43043;DHT22;28667;50.758;6.096;2022-08-06T10:29:04;18.60;91.20
43043;DHT22;28667;50.758;6.096;2022-08-06T10:31:32;18.70;91.50
43043;DHT22;28667;50.758;6.096;2022-08-06T10:34:24;18.90;91.20
43043;DHT22;28667;50.758;6.096;2022-08-06T10:37:03;19.00;90.90
43043;DHT22;28667;50.758;6.096;2022-08-06T10:39:34;18.90;91.20
43043;DHT22;28667;50.758;6.096;2022-08-06T10:42:03;18.80;90.90
43043;DHT22;28667;50.758;6.096;2022-08-06T10:44:34;18.70;91.40
43043;DHT22;28667;50.758;6.096;2022-08-06T10:47:02;18.60;91.70
43043;DHT22;28667;50.758;6.096;2022-08-06T10:49:29;18.50;91.70
43043;DHT22;28667;50.758;6.096;2022-08-06T10:51:56;18.50;90.30
43043;DHT22;28667;50.758;6.096;2022-08-06T10:54:23;18.40;90.10
43043;DHT22;28667;50.758;6.096;2022-08-06T10:56:50;18.50;90.00
43043;DHT22;28667;50.758;6.096;2022-08-06T10:59:17;18.70;90.00
43043;DHT22;28667;50.758;6.096;2022-08-06T11:01:46;18.70;89.10
43043;DHT22;28667;50.758;6.096;2022-08-06T11:04:19;18.90;89.20
43043;DHT22;28667;50.758;6.096;2022-08-06T11:14:55;19.70;87.60
43043;DHT22;28667;50.758;6.096;2022-08-06T11:17:24;19.90;86.60
43043;DHT22;28667;50.758;6.096;2022-08-06T11:19:50;20.00;84.30
43043;DHT22;28667;50.758;6.096;2022-08-06T11:24:58;20.10;83.40
43043;DHT22;28667;50.758;6.096;2022-08-06T11:27:47;20.20;83.80
43043;DHT22;28667;50.758;6.096;2022-08-06T11:30:13;20.30;83.10
43043;DHT22;28667;50.758;6.096;2022-08-06T11:32:45;20.30;82.60
43043;DHT22;28667;50.758;6.096;2022-08-06T11:38:05;20.10;81.70
43043;DHT22;28667;50.758;6.096;2022-08-06T11:41:00;19.90;81.70
43043;DHT22;28667;50.758;6.096;2022-08-06T11:46:25;19.50;79.10
43043;DHT22;28667;50.758;6.096;2022-08-06T12:02:12;19.50;76.50
43043;DHT22;28667;50.758;6.096;2022-08-06T12:04:42;19.90;76.20
43043;DHT22;28667;50.758;6.096;2022-08-06T12:12:47;20.70;74.90
43043;DHT22;28667;50.758;6.096;2022-08-06T12:20:42;21.00;75.10
43043;DHT22;28667;50.758;6.096;2022-08-06T12:23:14;21.10;74.30
43043;DHT22;28667;50.758;6.096;2022-08-06T12:25:42;21.10;73.90
43043;DHT22;28667;50.758;6.096;2022-08-06T12:28:11;21.20;73.80
43043;DHT22;28667;50.758;6.096;2022-08-06T12:30:42;21.20;74.30
43043;DHT22;28667;50.758;6.096;2022-08-06T12:33:09;21.30;73.60
43043;DHT22;28667;50.758;6.096;2022-08-06T12:35:36;21.20;74.00
43043;DHT22;28667;50.758;6.096;2022-08-06T12:38:13;21.10;75.10
43043;DHT22;28667;50.758;6.096;2022-08-06T12:40:39;20.90;76.20
43043;DHT22;28667;50.758;6.096;2022-08-06T12:45:32;20.50;75.70
43043;DHT22;28667;50.758;6.096;2022-08-06T12:48:06;20.40;76.50
43043;DHT22;28667;50.758;6.096;2022-08-06T12:50:35;20.50;75.00
43043;DHT22;28667;50.758;6.096;2022-08-06T12:53:06;20.50;73.70
43043;DHT22;28667;50.758;6.096;2022-08-06T12:55:49;20.60;72.60
43043;DHT22;28667;50.758;6.096;2022-08-06T12:58:19;20.70;73.50
43043;DHT22;28667;50.758;6.096;2022-08-06T13:00:49;20.80;74.60
43043;DHT22;28667;50.758;6.096;2022-08-06T13:03:17;21.00;74.20
43043;DHT22;28667;50.758;6.096;2022-08-06T13:05:47;21.20;73.50
43043;DHT22;28667;50.758;6.096;2022-08-06T13:08:15;21.40;72.50
43043;DHT22;28667;50.758;6.096;2022-08-06T13:10:51;21.50;71.00
43043;DHT22;28667;50.758;6.096;2022-08-06T13:13:19;21.40;70.70
43043;DHT22;28667;50.758;6.096;2022-08-06T13:16:08;21.30;70.90
43043;DHT22;28667;50.758;6.096;2022-08-06T13:18:35;21.10;70.00
43043;DHT22;28667;50.758;6.096;2022-08-06T13:21:01;20.90;70.80
43043;DHT22;28667;50.758;6.096;2022-08-06T13:23:34;20.90;71.20
43043;DHT22;28667;50.758;6.096;2022-08-06T13:26:21;20.90;70.50
43043;DHT22;28667;50.758;6.096;2022-08-06T13:29:10;21.10;70.50
43043;DHT22;28667;50.758;6.096;2022-08-06T13:31:38;21.20;70.30
43043;DHT22;28667;50.758;6.096;2022-08-06T13:34:07;21.30;70.20
43043;DHT22;28667;50.758;6.096;2022-08-06T13:36:38;21.30;70.70
43043;DHT22;28667;50.758;6.096;2022-08-06T13:39:25;21.40;69.70
43043;DHT22;28667;50.758;6.096;2022-08-06T13:42:07;21.40;68.60
43043;DHT22;28667;50.758;6.096;2022-08-06T13:44:36;21.30;69.20
43043;DHT22;28667;50.758;6.096;2022-08-06T13:47:07;21.30;69.70
43043;DHT22;28667;50.758;6.096;2022-08-06T13:49:34;21.30;69.30
43043;DHT22;28667;50.758;6.096;2022-08-06T13:52:01;21.30;69.40
43043;DHT22;28667;50.758;6.096;2022-08-06T13:54:28;21.30;69.40
43043;DHT22;28667;50.758;6.096;2022-08-06T13:56:55;21.30;70.70
43043;DHT22;28667;50.758;6.096;2022-08-06T13:59:23;21.50;68.40
43043;DHT22;28667;50.758;6.096;2022-08-06T14:01:50;21.50;69.00
43043;DHT22;28667;50.758;6.096;2022-08-06T14:04:18;21.50;69.70
43043;DHT22;28667;50.758;6.096;2022-08-06T14:06:49;21.40;69.70
43043;DHT22;28667;50.758;6.096;2022-08-06T14:09:18;21.30;71.10
43043;DHT22;28667;50.758;6.096;2022-08-06T14:11:45;21.40;70.20
43043;DHT22;28667;50.758;6.096;2022-08-06T14:14:11;21.40;71.40
43043;DHT22;28667;50.758;6.096;2022-08-06T14:16:37;21.40;70.70
43043;DHT22;28667;50.758;6.096;2022-08-06T14:19:03;21.40;70.90
43043;DHT22;28667;50.758;6.096;2022-08-06T14:21:29;21.30;70.40
43043;DHT22;28667;50.758;6.096;2022-08-06T14:23:55;21.20;69.20
43043;DHT22;28667;50.758;6.096;2022-08-06T14:26:21;21.00;69.90
43043;DHT22;28667;50.758;6.096;2022-08-06T14:28:47;21.00;69.90
43043;DHT22;28667;50.758;6.096;2022-08-06T14:31:13;21.10;70.20
43043;DHT22;28667;50.758;6.096;2022-08-06T14:33:39;21.20;71.40
43043;DHT22;28667;50.758;6.096;2022-08-06T14:36:06;21.30;72.10
43043;DHT22;28667;50.758;6.096;2022-08-06T14:38:32;21.50;72.10
43043;DHT22;28667;50.758;6.096;2022-08-06T14:41:00;21.60;71.10
43043;DHT22;28667;50.758;6.096;2022-08-06T14:43:46;21.60;69.60
43043;DHT22;28667;50.758;6.096;2022-08-06T14:46:31;21.60;70.20
43043;DHT22;28667;50.758;6.096;2022-08-06T14:48:59;21.50;71.40
43043;DHT22;28667;50.758;6.096;2022-08-06T14:51:26;21.40;70.80
43043;DHT22;28667;50.758;6.096;2022-08-06T14:53:53;21.40;72.10
43043;DHT22;28667;50.758;6.096;2022-08-06T14:56:19;21.40;71.10
43043;DHT22;28667;50.758;6.096;2022-08-06T14:58:45;21.50;71.10
43043;DHT22;28667;50.758;6.096;2022-08-06T15:01:11;21.50;70.00
43043;DHT22;28667;50.758;6.096;2022-08-06T15:03:37;21.50;69.00
43043;DHT22;28667;50.758;6.096;2022-08-06T15:06:04;21.40;68.90
43043;DHT22;28667;50.758;6.096;2022-08-06T15:08:31;21.30;69.50
43043;DHT22;28667;50.758;6.096;2022-08-06T15:10:57;21.20;70.10
43043;DHT22;28667;50.758;6.096;2022-08-06T15:13:23;21.10;70.10
43043;DHT22;28667;50.758;6.096;2022-08-06T15:15:49;21.10;70.90
43043;DHT22;28667;50.758;6.096;2022-08-06T15:18:15;21.00;70.90
43043;DHT22;28667;50.758;6.096;2022-08-06T15:20:42;21.00;71.70
43043;DHT22;28667;50.758;6.096;2022-08-06T15:23:08;21.20;69.70
43043;DHT22;28667;50.758;6.096;2022-08-06T15:25:34;21.40;69.20
43043;DHT22;28667;50.758;6.096;2022-08-06T15:28:00;21.60;69.20
43043;DHT22;28667;50.758;6.096;2022-08-06T15:30:27;21.70;69.30
43043;DHT22;28667;50.758;6.096;2022-08-06T15:32:53;21.80;68.50
43043;DHT22;28667;50.758;6.096;2022-08-06T15:35:20;22.00;68.20
43043;DHT22;28667;50.758;6.096;2022-08-06T15:37:46;22.10;67.80
43043;DHT22;28667;50.758;6.096;2022-08-06T15:40:14;22.40;67.20
43043;DHT22;28667;50.758;6.096;2022-08-06T15:42:40;22.60;68.50
43043;DHT22;28667;50.758;6.096;2022-08-06T15:45:07;22.80;68.70
43043;DHT22;28667;50.758;6.096;2022-08-06T15:47:33;22.70;69.00
43043;DHT22;28667;50.758;6.096;2022-08-06T15:50:00;22.60;69.10
43043;DHT22;28667;50.758;6.096;2022-08-06T15:52:26;22.40;72.70
43043;DHT22;28667;50.758;6.096;2022-08-06T15:54:53;22.30;73.30
43043;DHT22;28667;50.758;6.096;2022-08-06T15:57:19;22.10;73.30
43043;DHT22;28667;50.758;6.096;2022-08-06T15:59:48;22.00;73.30
43043;DHT22;28667;50.758;6.096;2022-08-06T16:02:14;22.00;73.10
43043;DHT22;28667;50.758;6.096;2022-08-06T16:04:41;21.80;72.30
43043;DHT22;28667;50.758;6.096;2022-08-06T16:07:07;21.70;72.50
43043;DHT22;28667;50.758;6.096;2022-08-06T16:09:34;21.60;73.00
43043;DHT22;28667;50.758;6.096;2022-08-06T16:12:01;21.60;71.40
43043;DHT22;28667;50.758;6.096;2022-08-06T16:14:29;21.50;69.80
43043;DHT22;28667;50.758;6.096;2022-08-06T16:16:55;21.50;71.50
43043;DHT22;28667;50.758;6.096;2022-08-06T16:19:21;21.50;71.40
43043;DHT22;28667;50.758;6.096;2022-08-06T16:21:48;21.40;70.80
43043;DHT22;28667;50.758;6.096;2022-08-06T16:24:14;21.40;73.10
43043;DHT22;28667;50.758;6.096;2022-08-06T16:26:41;21.40;72.00
43043;DHT22;28667;50.758;6.096;2022-08-06T16:29:08;21.20;72.70
43043;DHT22;28667;50.758;6.096;2022-08-06T16:31:35;21.10;72.10
43043;DHT22;28667;50.758;6.096;2022-08-06T16:34:01;20.90;72.60
43043;DHT22;28667;50.758;6.096;2022-08-06T16:36:27;20.80;73.30
43043;DHT22;28667;50.758;6.096;2022-08-06T16:38:53;20.60;74.50
43043;DHT22;28667;50.758;6.096;2022-08-06T16:41:19;20.50;75.20
43043;DHT22;28667;50.758;6.096;2022-08-06T16:43:45;20.50;75.40
43043;DHT22;28667;50.758;6.096;2022-08-06T16:46:13;20.50;75.00
43043;DHT22;28667;50.758;6.096;2022-08-06T16:48:39;20.60;76.50
43043;DHT22;28667;50.758;6.096;2022-08-06T16:51:06;20.70;75.40
43043;DHT22;28667;50.758;6.096;2022-08-06T16:53:32;20.80;72.90
43043;DHT22;28667;50.758;6.096;2022-08-06T16:55:59;21.00;74.30
43043;DHT22;28667;50.758;6.096;2022-08-06T16:58:25;21.10;72.30
43043;DHT22;28667;50.758;6.096;2022-08-06T17:00:51;21.20;72.10
43043;DHT22;28667;50.758;6.096;2022-08-06T17:03:17;21.20;71.30
43043;DHT22;28667;50.758;6.096;2022-08-06T17:05:43;21.30;71.80
43043;DHT22;28667;50.758;6.096;2022-08-06T17:08:10;21.40;71.50